createdAt,value
2019-05-25T00:02:00.163Z,7.50
2019-05-25T00:04:27.789Z,6.33
2019-05-25T00:06:55.367Z,6.03
2019-05-25T00:09:22.949Z,4.93
2019-05-25T00:11:50.550Z,5.10
2019-05-25T00:14:18.126Z,8.10
2019-05-25T00:16:45.697Z,6.00
2019-05-25T00:19:13.351Z,6.47
2019-05-25T00:21:40.871Z,8.63
2019-05-25T00:24:12.401Z,7.05
2019-05-25T00:26:36.809Z,5.57
2019-05-25T00:29:04.394Z,8.20
2019-05-25T00:31:32.784Z,6.37
2019-05-25T00:34:00.353Z,6.00
2019-05-25T00:36:27.932Z,6.17
2019-05-25T00:38:55.538Z,6.27
2019-05-25T00:41:23.112Z,11.57
2019-05-25T00:43:51.482Z,5.37
2019-05-25T00:46:19.055Z,6.63
2019-05-25T00:48:47.440Z,5.40
2019-05-25T00:51:15.786Z,5.10
2019-05-25T00:53:43.348Z,5.20
2019-05-25T00:56:10.951Z,5.27
2019-05-25T00:58:38.519Z,8.87
2019-05-25T01:01:06.427Z,8.47
2019-05-25T01:03:33.717Z,7.90
2019-05-25T01:06:02.681Z,9.93
2019-05-25T01:08:30.252Z,8.93
2019-05-25T01:10:57.834Z,6.77
2019-05-25T01:13:26.494Z,6.45
2019-05-25T01:15:54.065Z,5.13
2019-05-25T01:18:21.668Z,5.07
2019-05-25T01:20:50.025Z,7.28
2019-05-25T01:23:18.413Z,8.07
2019-05-25T01:25:46.744Z,6.50
2019-05-25T01:28:14.393Z,6.67
2019-05-25T01:30:41.980Z,6.33
2019-05-25T01:33:09.559Z,10.53
2019-05-25T01:35:37.161Z,6.20
2019-05-25T01:38:04.745Z,6.57
2019-05-25T01:40:32.709Z,8.52
2019-05-25T01:43:00.289Z,6.73
2019-05-25T01:45:27.869Z,6.10
2019-05-25T01:47:55.499Z,6.93
2019-05-25T01:50:23.075Z,5.33
2019-05-25T01:52:50.657Z,6.67
2019-05-25T01:55:18.267Z,6.25
2019-05-25T01:57:45.846Z,6.30
2019-05-25T02:00:13.418Z,7.80
2019-05-25T02:02:41.071Z,7.03
2019-05-25T02:05:08.641Z,5.90
2019-05-25T02:07:36.219Z,6.57
2019-05-25T02:10:03.835Z,6.63
2019-05-25T02:12:31.410Z,6.63
2019-05-25T02:14:58.982Z,5.53
2019-05-25T02:17:26.597Z,7.13
2019-05-25T02:19:54.938Z,6.63
2019-05-25T02:22:22.510Z,5.33
2019-05-25T02:24:50.115Z,6.40
2019-05-25T02:27:17.687Z,6.82
2019-05-25T02:29:45.336Z,8.50
2019-05-25T02:32:12.915Z,5.97
2019-05-25T02:34:40.484Z,6.10
2019-05-25T02:37:08.093Z,4.80
2019-05-25T02:39:35.669Z,5.47
2019-05-25T02:42:04.011Z,5.60
2019-05-25T02:44:31.619Z,6.70
2019-05-25T02:46:59.193Z,5.83
2019-05-25T02:49:26.771Z,6.27
2019-05-25T02:51:54.787Z,5.93
2019-05-25T02:54:22.356Z,8.07
2019-05-25T02:56:50.700Z,8.68
2019-05-25T02:59:18.310Z,7.13
2019-05-25T03:01:46.659Z,7.00
2019-05-25T03:04:14.231Z,9.60
2019-05-25T03:06:41.850Z,5.63
2019-05-25T03:09:09.423Z,6.93
2019-05-25T03:11:37.005Z,7.70
2019-05-25T03:14:04.742Z,11.40
2019-05-25T03:16:32.319Z,9.27
2019-05-25T03:18:59.897Z,8.90
2019-05-25T03:21:27.510Z,8.68
2019-05-25T03:23:55.087Z,9.23
2019-05-25T03:26:22.660Z,5.93
2019-05-25T03:28:50.542Z,8.73
2019-05-25T03:31:18.120Z,7.87
2019-05-25T03:33:45.695Z,6.13
2019-05-25T03:36:14.077Z,6.80
2019-05-25T03:38:42.418Z,6.57
2019-05-25T03:41:09.992Z,8.33
2019-05-25T03:43:37.601Z,8.20
2019-05-25T03:46:05.186Z,7.50
2019-05-25T03:48:32.762Z,6.33
2019-05-25T03:51:00.407Z,6.57
2019-05-25T03:53:27.946Z,6.90
2019-05-25T03:56:05.427Z,11.53
2019-05-25T03:58:23.140Z,6.60
2019-05-25T04:00:51.579Z,7.97
2019-05-25T04:03:19.088Z,9.43
2019-05-25T04:05:47.465Z,8.60
2019-05-25T04:08:15.813Z,6.40
2019-05-25T04:10:43.386Z,10.33
2019-05-25T04:13:10.997Z,8.93
2019-05-25T04:15:38.570Z,7.53
2019-05-25T04:18:06.137Z,6.57
2019-05-25T04:20:33.753Z,5.40
2019-05-25T04:23:02.095Z,5.57
2019-05-25T04:25:29.670Z,8.33
2019-05-25T04:27:57.274Z,6.50
2019-05-25T04:30:24.854Z,9.67
2019-05-25T04:32:52.445Z,12.20
2019-05-25T04:35:20.043Z,7.27
2019-05-25T04:37:48.382Z,7.67
2019-05-25T04:40:16.552Z,7.70
2019-05-25T04:42:44.120Z,6.93
2019-05-25T04:45:11.710Z,5.43
2019-05-25T04:47:39.321Z,5.40
2019-05-25T04:50:07.208Z,7.53
2019-05-25T04:52:34.777Z,5.53
2019-05-25T04:55:02.384Z,7.37
2019-05-25T04:57:30.726Z,6.27
2019-05-25T04:59:58.361Z,8.10
2019-05-25T05:02:25.937Z,7.23
2019-05-25T05:04:53.520Z,10.10
2019-05-25T05:07:21.139Z,8.20
2019-05-25T05:10:01.425Z,7.97
2019-05-25T05:12:16.294Z,7.47
2019-05-25T05:14:44.173Z,9.43
2019-05-25T05:17:11.742Z,6.97
2019-05-25T05:19:39.321Z,9.87
2019-05-25T05:22:07.703Z,9.70
2019-05-25T05:24:36.647Z,8.77
2019-05-25T05:27:04.221Z,11.97
2019-05-25T05:29:32.172Z,8.93
2019-05-25T05:31:59.747Z,10.20
2019-05-25T05:34:27.329Z,14.97
2019-05-25T05:36:54.943Z,11.67
2019-05-25T05:39:22.518Z,16.10
2019-05-25T05:41:50.093Z,14.17
2019-05-25T05:44:17.709Z,12.50
2019-05-25T05:46:45.287Z,11.20
2019-05-25T05:49:12.944Z,9.97
2019-05-25T05:51:40.575Z,16.17
2019-05-25T05:54:08.099Z,11.37
2019-05-25T05:56:35.790Z,11.00
2019-05-25T05:59:03.375Z,12.10
2019-05-25T06:01:30.956Z,12.37
2019-05-25T06:03:58.590Z,14.30
2019-05-25T06:06:26.935Z,12.90
2019-05-25T06:08:54.519Z,12.40
2019-05-25T06:11:22.144Z,12.60
2019-05-25T06:13:49.725Z,12.13
2019-05-25T06:16:17.297Z,12.77
2019-05-25T06:18:44.927Z,13.43
2019-05-25T06:21:12.511Z,11.33
2019-05-25T06:23:40.091Z,12.35
2019-05-25T06:26:07.737Z,13.50
2019-05-25T06:28:35.289Z,12.10
2019-05-25T06:31:02.867Z,12.10
2019-05-25T06:33:30.500Z,10.47
2019-05-25T06:35:58.075Z,9.60
2019-05-25T06:38:25.658Z,11.23
2019-05-25T06:40:53.263Z,13.00
2019-05-25T06:43:20.837Z,12.00
2019-05-25T06:45:48.472Z,13.97
2019-05-25T06:48:16.802Z,9.67
2019-05-25T06:50:44.386Z,13.60
2019-05-25T06:53:12.014Z,13.82
2019-05-25T06:55:39.594Z,10.60
2019-05-25T06:58:07.165Z,12.40
2019-05-25T07:00:34.818Z,9.17
2019-05-25T07:03:02.416Z,8.30
2019-05-25T07:05:29.965Z,8.73
2019-05-25T07:07:58.364Z,9.07
2019-05-25T07:10:26.693Z,8.73
2019-05-25T07:12:54.271Z,5.63
2019-05-25T07:15:22.225Z,9.73
2019-05-25T07:17:49.815Z,7.67
2019-05-25T07:20:17.382Z,8.17
2019-05-25T07:22:45.770Z,7.85
2019-05-25T07:25:14.109Z,7.53
2019-05-25T07:27:41.694Z,8.00
2019-05-25T07:30:10.129Z,6.35
2019-05-25T07:32:37.701Z,7.40
2019-05-25T07:35:05.296Z,7.03
2019-05-25T07:37:32.913Z,6.03
2019-05-25T07:40:00.489Z,7.60
2019-05-25T07:42:28.061Z,6.20
2019-05-25T07:44:55.685Z,5.50
2019-05-25T07:47:23.254Z,5.70
2019-05-25T07:49:50.864Z,6.18
2019-05-25T07:52:18.445Z,4.80
2019-05-25T07:54:46.791Z,10.87
2019-05-25T07:57:14.364Z,6.30
2019-05-25T07:59:41.971Z,4.40
2019-05-25T08:02:09.561Z,5.27
2019-05-25T08:04:37.169Z,7.50
2019-05-25T08:07:05.523Z,5.50
2019-05-25T08:09:33.092Z,3.57
2019-05-25T08:12:00.704Z,5.53
2019-05-25T08:14:28.276Z,5.40
2019-05-25T08:16:55.920Z,8.17
2019-05-25T08:19:23.503Z,5.43
2019-05-25T08:21:51.070Z,4.37
2019-05-25T08:24:18.698Z,10.57
2019-05-25T08:26:46.271Z,4.07
2019-05-25T08:29:13.852Z,6.37
2019-05-25T08:31:41.480Z,3.77
2019-05-25T08:34:09.052Z,7.07
2019-05-25T08:36:36.617Z,4.60
2019-05-25T08:39:04.247Z,6.27
2019-05-25T08:41:32.587Z,5.33
2019-05-25T08:44:01.138Z,4.27
2019-05-25T08:46:28.140Z,3.25
2019-05-25T08:48:55.709Z,3.40
2019-05-25T08:51:23.281Z,2.33
2019-05-25T08:53:51.669Z,2.53
2019-05-25T08:56:20.013Z,3.80
2019-05-25T08:58:49.127Z,3.67
2019-05-25T09:01:15.313Z,2.60
2019-05-25T09:03:42.823Z,3.10
2019-05-25T09:06:11.167Z,2.37
2019-05-25T09:08:38.792Z,3.93
2019-05-25T09:11:06.399Z,2.77
2019-05-25T09:13:33.934Z,1.73
2019-05-25T09:16:02.035Z,2.90
2019-05-25T09:18:29.607Z,4.53
2019-05-25T09:20:57.177Z,3.33
2019-05-25T09:23:24.783Z,2.13
2019-05-25T09:25:52.357Z,14.70
2019-05-25T09:28:19.928Z,2.93
2019-05-25T09:30:47.544Z,3.10
2019-05-25T09:33:15.115Z,2.73
2019-05-25T09:35:55.831Z,3.80
2019-05-25T09:38:23.403Z,2.53
2019-05-25T09:40:50.998Z,1.53
2019-05-25T09:43:18.611Z,3.33
2019-05-25T09:45:46.174Z,1.90
2019-05-25T09:48:13.767Z,2.47
2019-05-25T09:50:41.435Z,3.07
2019-05-25T09:53:09.773Z,1.77
2019-05-25T09:55:37.349Z,2.50
2019-05-25T09:58:05.004Z,3.00
2019-05-25T10:00:32.574Z,2.87
2019-05-25T10:03:00.143Z,2.53
2019-05-25T10:05:27.756Z,1.77
2019-05-25T10:07:55.332Z,2.22
2019-05-25T10:10:22.902Z,2.13
2019-05-25T10:12:50.532Z,1.20
2019-05-25T10:15:18.123Z,3.13
2019-05-25T10:17:45.688Z,2.70
2019-05-25T10:20:13.311Z,5.00
2019-05-25T10:22:40.890Z,2.47
2019-05-25T10:25:08.466Z,2.33
2019-05-25T10:27:36.080Z,2.97
2019-05-25T10:30:04.430Z,1.83
2019-05-25T10:32:31.997Z,1.97
2019-05-25T10:34:59.618Z,1.63
2019-05-25T10:37:27.200Z,1.55
2019-05-25T10:39:54.777Z,1.80
2019-05-25T10:42:22.785Z,3.27
2019-05-25T10:44:51.118Z,1.20
2019-05-25T10:47:18.713Z,1.33
2019-05-25T10:49:47.684Z,5.67
2019-05-25T10:52:15.266Z,2.80
2019-05-25T10:54:43.632Z,2.40
2019-05-25T10:57:13.354Z,0.83
2019-05-25T10:59:52.343Z,4.25
2019-05-25T11:02:07.453Z,1.37
2019-05-25T11:04:35.078Z,0.80
2019-05-25T11:07:02.654Z,1.63
2019-05-25T11:09:30.282Z,1.10
2019-05-25T11:11:58.996Z,17.53
2019-05-25T11:14:26.604Z,0.90
2019-05-25T11:16:54.966Z,0.77
2019-05-25T11:19:24.389Z,3.27
2019-05-25T11:21:50.995Z,3.30
2019-05-25T11:24:18.687Z,1.87
2019-05-25T11:26:46.296Z,0.70
2019-05-25T11:29:13.884Z,0.90
2019-05-25T11:31:41.458Z,2.47
2019-05-25T11:34:09.105Z,2.23
2019-05-25T11:36:36.728Z,1.20
2019-05-25T11:39:04.328Z,2.40
2019-05-25T11:41:32.486Z,2.63
2019-05-25T11:44:00.057Z,1.90
2019-05-25T11:46:27.717Z,1.80
2019-05-25T11:48:55.304Z,2.43
2019-05-25T11:51:22.871Z,1.47
2019-05-25T11:53:51.203Z,1.90
2019-05-25T11:56:18.819Z,0.77
2019-05-25T11:58:47.912Z,3.10
2019-05-25T12:01:14.733Z,2.90
2019-05-25T12:03:42.365Z,6.17
2019-05-25T12:06:09.928Z,1.03
2019-05-25T12:08:37.502Z,1.43
2019-05-25T12:11:05.129Z,1.67
2019-05-25T12:13:32.706Z,0.70
2019-05-25T12:16:00.269Z,1.07
2019-05-25T12:18:27.889Z,0.90
2019-05-25T12:20:56.234Z,1.73
2019-05-25T12:23:23.810Z,0.80
2019-05-25T12:25:51.908Z,19.87
2019-05-25T12:28:20.250Z,10.40
2019-05-25T12:30:47.820Z,9.67
2019-05-25T12:33:15.436Z,8.15
2019-05-25T12:35:45.154Z,9.73
2019-05-25T12:38:10.586Z,7.23
2019-05-25T12:40:52.801Z,6.75
2019-05-25T12:43:05.781Z,5.37
2019-05-25T12:45:33.358Z,6.47
2019-05-25T12:48:00.958Z,9.43
2019-05-25T12:50:28.533Z,5.57
2019-05-25T12:52:57.400Z,7.12
2019-05-25T12:55:24.979Z,4.90
2019-05-25T12:57:52.558Z,4.70
2019-05-25T13:00:20.498Z,3.97
2019-05-25T13:02:48.094Z,4.20
2019-05-25T13:05:16.433Z,4.82
2019-05-25T13:07:44.391Z,2.90
2019-05-25T13:10:14.758Z,3.23
2019-05-25T13:12:43.107Z,3.07
2019-05-25T13:15:10.730Z,5.50
2019-05-25T13:17:38.303Z,6.55
2019-05-25T13:20:05.876Z,7.00
2019-05-25T13:22:33.482Z,6.17
2019-05-25T13:25:01.057Z,2.83
2019-05-25T13:27:30.188Z,6.07
2019-05-25T13:29:57.763Z,7.77
2019-05-25T13:32:25.337Z,5.00
2019-05-25T13:34:52.962Z,5.67
2019-05-25T13:37:20.542Z,9.80
2019-05-25T13:39:48.128Z,10.43
2019-05-25T13:42:15.755Z,5.67
2019-05-25T13:44:43.833Z,6.73
2019-05-25T13:47:11.414Z,3.90
2019-05-25T13:49:39.039Z,2.90
2019-05-25T13:52:06.609Z,6.77
2019-05-25T13:54:34.185Z,6.70
2019-05-25T13:57:01.807Z,3.20
2019-05-25T13:59:29.377Z,6.93
2019-05-25T14:01:57.727Z,2.50
2019-05-25T14:04:25.333Z,5.07
2019-05-25T14:06:52.977Z,3.20
2019-05-25T14:09:20.482Z,2.30
2019-05-25T14:11:48.470Z,3.37
2019-05-25T14:14:16.053Z,3.67
2019-05-25T14:16:44.393Z,2.50
2019-05-25T14:19:12.671Z,2.10
2019-05-25T14:21:40.245Z,1.93
2019-05-25T14:24:07.825Z,2.47
2019-05-25T14:26:35.421Z,2.50
2019-05-25T14:29:03.338Z,2.43
2019-05-25T14:31:44.406Z,2.70
2019-05-25T14:33:58.530Z,3.15
2019-05-25T14:36:26.142Z,2.57
2019-05-25T14:38:53.711Z,1.50
2019-05-25T14:41:22.054Z,2.80
2019-05-25T14:43:49.679Z,1.30
2019-05-25T14:46:27.267Z,2.27
2019-05-25T14:48:45.604Z,1.53
2019-05-25T14:51:13.990Z,1.60
2019-05-25T14:53:42.332Z,0.93
2019-05-25T14:56:09.942Z,1.20
2019-05-25T14:58:37.586Z,1.60
2019-05-25T15:01:05.103Z,1.50
2019-05-25T15:03:32.722Z,1.43
2019-05-25T15:06:00.301Z,1.67
2019-05-25T15:08:27.874Z,2.33
2019-05-25T15:10:55.974Z,2.00
2019-05-25T15:13:23.552Z,2.23
2019-05-25T15:15:51.125Z,3.03
2019-05-25T15:18:20.090Z,3.13
2019-05-25T15:20:47.664Z,6.63
2019-05-25T15:23:15.244Z,2.00
2019-05-25T15:25:44.292Z,5.63
2019-05-25T15:28:11.870Z,3.40
2019-05-25T15:30:39.442Z,6.43
2019-05-25T15:33:07.612Z,1.57
2019-05-25T15:35:35.457Z,3.50
2019-05-25T15:38:03.033Z,1.47
2019-05-25T15:40:30.987Z,2.30
2019-05-25T15:42:58.604Z,2.00
2019-05-25T15:45:26.947Z,4.13
2019-05-25T15:47:54.570Z,7.70
2019-05-25T15:50:22.141Z,4.60
2019-05-25T15:52:49.714Z,3.17
2019-05-25T15:55:17.339Z,3.57
2019-05-25T15:57:44.926Z,2.47
2019-05-25T16:00:12.503Z,2.47
2019-05-25T16:02:41.111Z,0.60
2019-05-25T16:05:08.681Z,6.93
2019-05-25T16:07:36.270Z,2.47
2019-05-25T16:10:07.561Z,3.97
2019-05-25T16:12:35.192Z,5.40
2019-05-25T16:15:02.767Z,3.80
2019-05-25T16:17:30.368Z,6.67
2019-05-25T16:19:57.994Z,1.43
2019-05-25T16:22:26.201Z,0.97
2019-05-25T16:24:53.754Z,0.60
2019-05-25T16:27:21.374Z,0.50
2019-05-25T16:29:48.947Z,2.03
2019-05-25T16:32:16.521Z,0.57
2019-05-25T16:34:44.517Z,0.60
2019-05-25T16:37:12.175Z,1.70
2019-05-25T16:39:39.666Z,0.98
2019-05-25T16:42:08.061Z,1.30
2019-05-25T16:44:35.637Z,1.17
2019-05-25T16:47:03.207Z,0.40
2019-05-25T16:49:30.839Z,3.23
2019-05-25T16:51:59.177Z,0.40
2019-05-25T16:54:26.854Z,0.67
2019-05-25T16:56:54.404Z,0.80
2019-05-25T16:59:21.973Z,3.23
2019-05-25T17:01:49.600Z,3.03
2019-05-25T17:04:17.168Z,1.70
2019-05-25T17:06:44.732Z,1.33
2019-05-25T17:09:12.359Z,0.60
2019-05-25T17:11:39.929Z,0.77
2019-05-25T17:14:07.507Z,0.43
2019-05-25T17:16:35.107Z,0.87
2019-05-25T17:19:02.680Z,2.70
2019-05-25T17:21:30.635Z,1.53
2019-05-25T17:23:58.221Z,0.60
2019-05-25T17:26:25.778Z,1.20
2019-05-25T17:28:54.441Z,0.80
2019-05-25T17:31:22.010Z,0.90
2019-05-25T17:33:49.580Z,1.17
2019-05-25T17:36:17.515Z,1.27
2019-05-25T17:38:45.096Z,0.60
2019-05-25T17:41:12.673Z,1.30
2019-05-25T17:43:40.632Z,1.10
2019-05-25T17:46:08.204Z,0.80
2019-05-25T17:48:35.787Z,1.08
2019-05-25T17:51:04.154Z,0.83
2019-05-25T17:53:32.796Z,0.70
2019-05-25T17:56:01.207Z,0.70
2019-05-25T17:58:28.782Z,0.80
2019-05-25T18:00:57.135Z,1.00
2019-05-25T18:03:24.783Z,0.60
2019-05-25T18:05:52.359Z,1.10
2019-05-25T18:08:19.931Z,0.77
2019-05-25T18:10:53.387Z,0.70
2019-05-25T18:13:15.134Z,0.70
2019-05-25T18:15:42.711Z,1.53
2019-05-25T18:18:10.340Z,0.63
2019-05-25T18:20:37.919Z,0.70
2019-05-25T18:23:05.497Z,2.03
2019-05-25T18:25:33.142Z,1.30
2019-05-25T18:28:03.303Z,0.97
2019-05-25T18:30:31.691Z,1.00
2019-05-25T18:32:59.305Z,1.70
2019-05-25T18:35:26.848Z,2.13
2019-05-25T18:37:55.150Z,2.53
2019-05-25T18:40:22.719Z,2.70
2019-05-25T18:42:50.292Z,2.87
2019-05-25T18:45:17.918Z,2.47
2019-05-25T18:47:45.495Z,2.80
2019-05-25T18:50:13.073Z,2.87
2019-05-25T18:52:40.699Z,1.40
2019-05-25T18:55:08.264Z,1.70
2019-05-25T18:57:35.888Z,1.30
2019-05-25T19:00:06.903Z,1.93
2019-05-25T19:02:34.474Z,1.40
2019-05-25T19:05:02.214Z,1.57
2019-05-25T19:07:29.732Z,2.27
2019-05-25T19:09:57.304Z,2.58
2019-05-25T19:12:24.906Z,2.03
2019-05-25T19:14:52.755Z,2.57
2019-05-25T19:17:20.379Z,2.40
2019-05-25T19:19:47.955Z,2.20
2019-05-25T19:22:15.537Z,4.37
2019-05-25T19:24:43.191Z,1.87
2019-05-25T19:27:10.764Z,3.17
2019-05-25T19:29:38.343Z,2.20
2019-05-25T19:32:06.007Z,2.20
2019-05-25T19:34:33.586Z,3.33
2019-05-25T19:37:03.510Z,2.80
2019-05-25T19:39:29.547Z,1.90
2019-05-25T19:41:57.911Z,1.60
2019-05-25T19:44:26.257Z,1.67
2019-05-25T19:46:53.882Z,2.30
2019-05-25T19:49:21.456Z,5.67
2019-05-25T19:51:49.032Z,2.93
2019-05-25T19:54:16.922Z,1.90
2019-05-25T19:56:44.496Z,2.53
2019-05-25T19:59:12.084Z,4.77
2019-05-25T20:01:39.693Z,4.95
2019-05-25T20:04:07.262Z,2.60
2019-05-25T20:06:34.888Z,3.07
2019-05-25T20:09:02.460Z,3.13
2019-05-25T20:11:30.037Z,4.10
2019-05-25T20:13:58.418Z,4.70
2019-05-25T20:16:25.990Z,4.70
2019-05-25T20:18:53.563Z,3.27
2019-05-25T20:21:21.231Z,4.97
2019-05-25T20:23:48.807Z,5.00
2019-05-25T20:26:17.155Z,4.87
2019-05-25T20:28:44.781Z,4.70
2019-05-25T20:31:12.359Z,5.13
2019-05-25T20:33:39.939Z,9.87
2019-05-25T20:36:08.126Z,14.33
2019-05-25T20:38:35.971Z,7.37
2019-05-25T20:41:03.554Z,22.97
2019-05-25T20:43:31.190Z,9.43
2019-05-25T20:45:58.767Z,13.80
2019-05-25T20:48:26.352Z,12.33
2019-05-25T20:50:53.957Z,8.93
2019-05-25T20:53:22.370Z,11.17
2019-05-25T20:55:49.941Z,8.20
2019-05-25T20:58:17.525Z,8.07
2019-05-25T21:00:45.941Z,3.95
2019-05-25T21:03:13.513Z,6.37
2019-05-25T21:05:50.415Z,4.20
2019-05-25T21:08:08.751Z,3.27
2019-05-25T21:10:36.321Z,2.75
2019-05-25T21:13:03.894Z,4.27
2019-05-25T21:15:31.516Z,6.50
2019-05-25T21:17:59.086Z,18.67
2019-05-25T21:20:26.662Z,15.00
2019-05-25T21:22:54.259Z,9.10
2019-05-25T21:25:21.829Z,9.57
2019-05-25T21:27:50.216Z,9.33
2019-05-25T21:30:18.558Z,6.97
2019-05-25T21:32:46.142Z,16.57
2019-05-25T21:35:14.535Z,11.75
2019-05-25T21:37:42.875Z,6.27
2019-05-25T21:40:10.460Z,4.77
2019-05-25T21:42:38.099Z,3.80
2019-05-25T21:45:06.660Z,8.85
2019-05-25T21:47:34.235Z,6.10
2019-05-25T21:50:01.863Z,3.60
2019-05-25T21:52:29.433Z,4.83
2019-05-25T21:54:57.010Z,4.63
2019-05-25T21:57:24.694Z,3.20
2019-05-25T21:59:52.549Z,2.70
2019-05-25T22:02:20.123Z,3.03
2019-05-25T22:04:47.739Z,2.73
2019-05-25T22:07:15.313Z,4.50
2019-05-25T22:09:42.987Z,6.40
2019-05-25T22:12:10.595Z,5.87
2019-05-25T22:14:38.166Z,3.77
2019-05-25T22:17:07.030Z,5.17
2019-05-25T22:19:34.612Z,4.90
2019-05-25T22:22:02.185Z,4.80
2019-05-25T22:24:30.547Z,4.33
2019-05-25T22:26:59.010Z,4.17
2019-05-25T22:29:26.635Z,3.53
2019-05-25T22:31:54.204Z,4.30
2019-05-25T22:34:21.782Z,5.27
2019-05-25T22:36:49.402Z,4.50
2019-05-25T22:39:17.737Z,4.97
2019-05-25T22:41:45.309Z,7.07
2019-05-25T22:44:12.934Z,6.50
2019-05-25T22:46:40.512Z,7.18
2019-05-25T22:49:08.094Z,20.83
2019-05-25T22:51:35.686Z,5.60
2019-05-25T22:54:04.025Z,4.77
2019-05-25T22:56:31.602Z,4.43
2019-05-25T22:58:59.210Z,7.20
2019-05-25T23:01:26.782Z,9.13
2019-05-25T23:03:54.357Z,6.80
2019-05-25T23:06:22.012Z,5.87
2019-05-25T23:08:49.585Z,4.33
2019-05-25T23:11:17.928Z,4.13
2019-05-25T23:13:45.537Z,4.97
2019-05-25T23:16:15.654Z,5.30
2019-05-25T23:18:43.230Z,4.32
2019-05-25T23:21:10.842Z,5.07
2019-05-25T23:23:38.418Z,9.13
2019-05-25T23:26:05.992Z,8.93
2019-05-25T23:28:33.982Z,9.37
2019-05-25T23:31:01.560Z,7.50
2019-05-25T23:33:29.126Z,5.10
2019-05-25T23:35:57.539Z,6.50
2019-05-25T23:38:26.355Z,5.07
2019-05-25T23:40:53.934Z,4.70
2019-05-25T23:43:21.543Z,5.20
2019-05-25T23:45:49.117Z,8.93
2019-05-25T23:48:16.692Z,6.83
2019-05-25T23:50:44.290Z,5.87
2019-05-25T23:53:12.232Z,6.73
2019-05-25T23:55:40.218Z,6.28
2019-05-25T23:58:07.798Z,6.53
